createdAt,value
2022-12-11T00:00:52.802Z,12.80
2022-12-11T00:03:20.011Z,14.95
2022-12-11T00:05:47.250Z,12.82
2022-12-11T00:08:14.616Z,12.35
2022-12-11T00:10:49.555Z,13.30
2022-12-11T00:13:16.970Z,12.85
2022-12-11T00:15:43.822Z,11.23
2022-12-11T00:18:14.167Z,12.93
2022-12-11T00:20:41.296Z,13.13
2022-12-11T00:23:08.316Z,13.70
2022-12-11T00:25:35.276Z,15.13
2022-12-11T00:28:02.193Z,14.73
2022-12-11T00:30:29.229Z,14.70
2022-12-11T00:32:56.166Z,13.05
2022-12-11T00:35:23.007Z,14.13
2022-12-11T00:37:50.051Z,12.18
2022-12-11T00:40:17.018Z,10.50
2022-12-11T00:42:43.942Z,15.15
2022-12-11T00:45:11.689Z,12.20
2022-12-11T00:47:39.096Z,13.02
2022-12-11T00:50:06.804Z,14.00
2022-12-11T00:52:34.879Z,12.50
2022-12-11T00:55:01.718Z,13.40
2022-12-11T00:57:28.661Z,14.60
2022-12-11T00:59:55.608Z,13.90
2022-12-11T01:02:22.509Z,12.25
2022-12-11T01:04:49.501Z,14.35
2022-12-11T01:07:16.382Z,14.85
2022-12-11T01:10:02.234Z,12.88
2022-12-11T01:12:29.089Z,12.07
2022-12-11T01:14:56.001Z,12.48
2022-12-11T01:17:23.163Z,14.52
2022-12-11T01:19:50.018Z,12.77
2022-12-11T01:22:17.033Z,12.43
2022-12-11T01:24:44.172Z,14.98
2022-12-11T01:27:11.106Z,12.55
2022-12-11T01:29:38.029Z,12.43
2022-12-11T01:32:05.227Z,12.18
2022-12-11T01:34:33.326Z,10.57
2022-12-11T01:37:00.331Z,13.27
2022-12-11T01:39:27.229Z,13.18
2022-12-11T01:41:58.974Z,12.30
2022-12-11T01:44:25.853Z,11.65
2022-12-11T01:46:53.660Z,11.82
2022-12-11T01:49:24.296Z,13.55
2022-12-11T01:51:58.818Z,13.43
2022-12-11T01:54:28.547Z,12.88
2022-12-11T01:57:04.595Z,9.15
2022-12-11T01:59:35.435Z,12.10
2022-12-11T02:02:20.925Z,13.27
2022-12-11T02:04:48.949Z,11.68
2022-12-11T02:07:16.598Z,11.60
2022-12-11T02:09:46.574Z,14.15
2022-12-11T02:12:49.980Z,11.98
2022-12-11T02:15:16.879Z,11.93
2022-12-11T02:18:08.744Z,12.68
2022-12-11T02:20:48.198Z,10.23
2022-12-11T02:23:30.398Z,12.68
2022-12-11T02:26:30.180Z,11.63
2022-12-11T02:28:58.518Z,9.32
2022-12-11T02:31:34.201Z,10.23
2022-12-11T02:34:23.279Z,11.07
2022-12-11T02:36:55.752Z,10.60
2022-12-11T02:39:25.287Z,12.07
2022-12-11T02:41:52.840Z,11.38
2022-12-11T02:44:26.102Z,10.77
2022-12-11T02:46:55.045Z,10.35
2022-12-11T02:49:24.305Z,10.10
2022-12-11T02:51:53.640Z,11.07
2022-12-11T02:54:25.589Z,12.65
2022-12-11T02:57:20.799Z,9.20
2022-12-11T02:59:47.895Z,9.18
2022-12-11T03:02:16.891Z,12.13
2022-12-11T03:04:45.845Z,10.23
2022-12-11T03:07:20.121Z,9.85
2022-12-11T03:09:48.621Z,8.40
2022-12-11T03:12:20.023Z,9.38
2022-12-11T03:14:48.902Z,8.63
2022-12-11T03:17:19.775Z,11.10
2022-12-11T03:19:52.577Z,8.87
2022-12-11T03:22:24.538Z,8.80
2022-12-11T03:24:57.844Z,9.75
2022-12-11T03:27:36.991Z,10.40
2022-12-11T03:30:11.548Z,7.15
2022-12-11T03:32:53.223Z,7.30
2022-12-11T03:35:26.488Z,11.35
2022-12-11T03:37:56.752Z,8.52
2022-12-11T03:40:26.055Z,8.98
2022-12-11T03:42:56.458Z,10.02
2022-12-11T03:45:26.208Z,9.35
2022-12-11T03:47:55.158Z,7.97
2022-12-11T03:50:24.648Z,8.25
2022-12-11T03:52:52.428Z,9.07
2022-12-11T03:55:21.572Z,10.45
2022-12-11T03:57:49.166Z,9.02
2022-12-11T04:00:19.002Z,12.00
2022-12-11T04:03:12.659Z,12.30
2022-12-11T04:05:48.837Z,7.53
2022-12-11T04:08:17.402Z,10.43
2022-12-11T04:10:44.679Z,8.73
2022-12-11T04:13:12.204Z,10.50
2022-12-11T04:15:40.139Z,10.73
2022-12-11T04:18:26.901Z,11.80
2022-12-11T04:21:13.971Z,10.13
2022-12-11T04:24:02.859Z,8.45
2022-12-11T04:26:29.770Z,10.70
2022-12-11T04:28:56.625Z,9.93
2022-12-11T04:31:23.631Z,8.60
2022-12-11T04:33:50.810Z,8.98
2022-12-11T04:36:17.789Z,11.57
2022-12-11T04:38:44.694Z,10.57
2022-12-11T04:41:14.223Z,10.48
2022-12-11T04:43:41.578Z,10.13
2022-12-11T04:46:14.928Z,11.38
2022-12-11T04:48:42.276Z,9.95
2022-12-11T04:51:09.705Z,10.82
2022-12-11T04:53:36.763Z,9.82
2022-12-11T04:56:08.714Z,10.73
2022-12-11T04:58:36.402Z,9.52
2022-12-11T05:01:15.810Z,10.15
2022-12-11T05:03:43.017Z,8.25
2022-12-11T05:06:11.026Z,9.52
2022-12-11T05:08:40.371Z,9.93
2022-12-11T05:11:10.287Z,8.43
2022-12-11T05:13:37.518Z,8.15
2022-12-11T05:16:06.065Z,8.55
2022-12-11T05:18:32.968Z,10.13
2022-12-11T05:21:02.065Z,9.20
2022-12-11T05:23:29.946Z,8.48
2022-12-11T05:25:58.717Z,9.70
2022-12-11T05:28:28.949Z,8.18
2022-12-11T05:31:01.371Z,9.07
2022-12-11T05:33:29.483Z,10.48
2022-12-11T05:35:56.546Z,8.30
2022-12-11T05:38:23.929Z,9.02
2022-12-11T05:41:02.264Z,10.00
2022-12-11T05:43:31.787Z,9.02
2022-12-11T05:46:09.670Z,8.73
2022-12-11T05:48:38.147Z,9.13
2022-12-11T05:51:06.859Z,8.20
2022-12-11T05:53:34.242Z,7.80
2022-12-11T05:56:06.986Z,8.88
2022-12-11T05:58:35.301Z,9.43
2022-12-11T06:01:06.743Z,8.55
2022-12-11T06:03:33.669Z,10.30
2022-12-11T06:06:05.659Z,8.48
2022-12-11T06:08:33.622Z,9.68
2022-12-11T06:11:01.395Z,8.23
2022-12-11T06:13:28.419Z,8.65
2022-12-11T06:15:55.625Z,8.45
2022-12-11T06:18:22.602Z,9.68
2022-12-11T06:20:49.559Z,7.35
2022-12-11T06:23:16.398Z,8.43
2022-12-11T06:25:43.305Z,7.32
2022-12-11T06:28:10.209Z,7.45
2022-12-11T06:30:39.144Z,10.05
2022-12-11T06:33:06.973Z,7.75
2022-12-11T06:35:38.746Z,8.70
2022-12-11T06:38:09.035Z,8.93
2022-12-11T06:40:35.991Z,6.80
2022-12-11T06:43:03.592Z,7.40
2022-12-11T06:45:30.930Z,7.50
2022-12-11T06:47:58.897Z,7.85
2022-12-11T06:50:26.416Z,10.43
2022-12-11T06:52:53.320Z,6.22
2022-12-11T06:55:20.335Z,6.78
2022-12-11T06:57:47.214Z,5.10
2022-12-11T07:00:15.019Z,7.70
2022-12-11T07:02:42.059Z,6.75
2022-12-11T07:05:09.548Z,7.90
2022-12-11T07:07:36.640Z,6.55
2022-12-11T07:10:08.246Z,6.35
2022-12-11T07:15:03.277Z,6.00
2022-12-11T07:17:30.975Z,7.20
2022-12-11T07:19:57.935Z,6.45
2022-12-11T07:22:24.848Z,7.25
2022-12-11T07:24:51.739Z,6.72
2022-12-11T07:27:18.654Z,6.78
2022-12-11T07:29:45.553Z,6.95
2022-12-11T07:32:12.704Z,6.22
2022-12-11T07:34:40.039Z,6.80
2022-12-11T07:37:06.976Z,5.13
2022-12-11T07:39:33.990Z,6.70
2022-12-11T07:42:00.915Z,6.43
2022-12-11T07:44:27.934Z,4.75
2022-12-11T07:46:55.052Z,6.55
2022-12-11T07:49:22.127Z,7.40
2022-12-11T07:51:49.010Z,6.03
2022-12-11T07:54:17.010Z,6.60
2022-12-11T07:56:48.621Z,8.35
2022-12-11T07:59:21.010Z,5.05
2022-12-11T08:01:48.296Z,5.00
2022-12-11T08:04:15.989Z,6.78
2022-12-11T08:06:43.740Z,7.68
2022-12-11T08:09:20.774Z,5.97
2022-12-11T08:11:50.536Z,6.07
2022-12-11T08:14:17.994Z,5.97
2022-12-11T08:16:45.069Z,5.22
2022-12-11T08:19:12.851Z,6.22
2022-12-11T08:21:40.417Z,7.47
2022-12-11T08:24:08.454Z,6.13
2022-12-11T08:26:35.695Z,7.65
2022-12-11T08:29:03.081Z,4.35
2022-12-11T08:31:30.609Z,7.45
2022-12-11T08:33:58.613Z,8.38
2022-12-11T08:36:26.250Z,8.65
2022-12-11T08:38:55.285Z,8.20
2022-12-11T08:41:28.256Z,6.68
2022-12-11T08:43:57.508Z,6.22
2022-12-11T08:46:29.930Z,8.95
2022-12-11T08:48:58.027Z,7.82
2022-12-11T08:51:28.110Z,6.80
2022-12-11T08:54:00.356Z,8.35
2022-12-11T08:56:28.730Z,11.20
2022-12-11T08:58:55.882Z,7.32
2022-12-11T09:01:25.604Z,8.38
2022-12-11T09:03:54.268Z,7.80
2022-12-11T09:06:23.667Z,7.25
2022-12-11T09:08:53.276Z,9.73
2022-12-11T09:11:24.280Z,7.35
2022-12-11T09:13:51.988Z,6.55
2022-12-11T09:16:22.537Z,6.70
2022-12-11T09:18:51.667Z,8.02
2022-12-11T09:21:21.457Z,7.28
2022-12-11T09:23:49.061Z,7.50
2022-12-11T09:26:17.815Z,6.55
2022-12-11T09:28:46.862Z,8.23
2022-12-11T09:31:16.585Z,6.40
2022-12-11T09:33:44.356Z,9.25
2022-12-11T09:36:12.147Z,7.30
2022-12-11T09:38:39.498Z,6.15
2022-12-11T09:41:21.635Z,10.20
2022-12-11T09:44:05.126Z,8.23
2022-12-11T09:46:34.557Z,7.60
2022-12-11T09:49:03.781Z,9.32
2022-12-11T09:51:39.609Z,8.05
2022-12-11T09:54:06.625Z,9.70
2022-12-11T09:56:42.620Z,7.45
2022-12-11T09:59:15.523Z,8.85
2022-12-11T10:02:36.321Z,9.30
2022-12-11T10:05:22.037Z,8.88
2022-12-11T10:07:49.397Z,10.18
2022-12-11T10:10:25.219Z,8.63
2022-12-11T10:13:01.393Z,8.77
2022-12-11T10:15:53.879Z,8.85
2022-12-11T10:18:25.233Z,9.23
2022-12-11T10:20:54.286Z,8.80
2022-12-11T10:24:04.283Z,10.38
2022-12-11T10:26:31.510Z,10.93
2022-12-11T10:29:03.769Z,11.73
2022-12-11T10:31:56.275Z,9.98
2022-12-11T10:34:38.903Z,11.57
2022-12-11T10:37:06.452Z,12.77
2022-12-11T10:39:33.451Z,11.35
2022-12-11T10:42:03.222Z,12.40
2022-12-11T10:44:34.599Z,10.98
2022-12-11T10:47:09.930Z,12.50
2022-12-11T10:49:38.541Z,10.63
2022-12-11T10:52:26.799Z,9.20
2022-12-11T10:55:04.724Z,9.30
2022-12-11T10:57:35.521Z,12.15
2022-12-11T11:00:05.206Z,11.35
2022-12-11T11:02:38.095Z,10.57
2022-12-11T11:05:14.950Z,10.32
2022-12-11T11:07:42.312Z,10.70
2022-12-11T11:10:17.939Z,12.35
2022-12-11T11:12:48.004Z,12.63
2022-12-11T11:15:16.909Z,12.88
2022-12-11T11:17:55.776Z,11.05
2022-12-11T11:20:34.512Z,12.32
2022-12-11T11:23:05.006Z,14.02
2022-12-11T11:25:33.529Z,12.65
2022-12-11T11:28:06.002Z,11.43
2022-12-11T11:30:39.311Z,13.15
2022-12-11T11:33:14.267Z,9.57
2022-12-11T11:35:52.851Z,11.40
2022-12-11T11:38:29.834Z,9.93
2022-12-11T11:41:15.091Z,12.27
2022-12-11T11:43:56.263Z,10.45
2022-12-11T11:46:37.921Z,11.50
2022-12-11T11:49:19.360Z,10.00
2022-12-11T11:52:31.303Z,9.52
2022-12-11T11:55:22.277Z,10.82
2022-12-11T11:58:00.720Z,10.45
2022-12-11T12:00:33.593Z,10.65
2022-12-11T12:03:06.176Z,8.25
2022-12-11T12:05:51.372Z,10.32
2022-12-11T12:08:31.101Z,10.98
2022-12-11T12:11:01.116Z,7.97
2022-12-11T12:14:02.084Z,9.38
2022-12-11T12:16:56.511Z,9.38
2022-12-11T12:19:46.175Z,10.07
2022-12-11T12:22:39.543Z,7.68
2022-12-11T12:25:25.139Z,10.50
2022-12-11T12:28:14.015Z,9.82
2022-12-11T12:30:50.886Z,11.27
2022-12-11T12:33:47.283Z,7.93
2022-12-11T12:36:35.667Z,8.20
2022-12-11T12:39:07.261Z,8.95
2022-12-11T12:42:07.295Z,8.00
2022-12-11T12:45:10.323Z,7.65
2022-12-11T12:47:38.883Z,10.80
2022-12-11T12:50:12.369Z,8.02
2022-12-11T12:52:40.914Z,8.05
2022-12-11T12:55:22.854Z,8.65
2022-12-11T12:58:03.167Z,8.75
2022-12-11T13:00:48.933Z,9.07
2022-12-11T13:03:22.792Z,7.82
2022-12-11T13:06:04.146Z,7.65
2022-12-11T13:08:41.950Z,8.30
2022-12-11T13:11:12.153Z,8.50
2022-12-11T13:13:42.814Z,8.40
2022-12-11T13:16:37.962Z,8.82
2022-12-11T13:19:22.716Z,10.48
2022-12-11T13:22:15.017Z,7.85
2022-12-11T13:24:49.893Z,10.27
2022-12-11T13:27:26.044Z,9.45
2022-12-11T13:30:16.611Z,8.95
2022-12-11T13:33:01.943Z,8.60
2022-12-11T13:35:30.454Z,10.98
2022-12-11T13:38:07.077Z,8.13
2022-12-11T13:40:39.732Z,8.45
2022-12-11T13:43:16.586Z,7.35
2022-12-11T13:45:44.193Z,7.78
2022-12-11T13:48:47.852Z,7.30
2022-12-11T13:51:20.164Z,7.25
2022-12-11T13:53:48.967Z,8.23
2022-12-11T13:56:19.723Z,9.25
2022-12-11T13:58:47.459Z,8.02
2022-12-11T14:01:20.282Z,8.10
2022-12-11T14:04:02.748Z,7.45
2022-12-11T14:06:31.862Z,6.85
2022-12-11T14:09:04.394Z,9.02
2022-12-11T14:11:37.583Z,7.55
2022-12-11T14:14:09.122Z,8.07
2022-12-11T14:16:36.356Z,6.63
2022-12-11T14:19:06.949Z,8.93
2022-12-11T14:21:35.781Z,8.50
2022-12-11T14:24:06.766Z,8.07
2022-12-11T14:26:35.647Z,5.72
2022-12-11T14:29:03.042Z,6.75
2022-12-11T14:31:35.850Z,8.45
2022-12-11T14:34:12.796Z,6.28
2022-12-11T14:36:41.225Z,5.30
2022-12-11T14:39:14.239Z,7.13
2022-12-11T14:42:12.443Z,5.93
2022-12-11T14:45:03.838Z,6.95
2022-12-11T14:47:37.641Z,6.70
2022-12-11T14:50:34.723Z,6.28
2022-12-11T14:53:13.651Z,6.07
2022-12-11T14:55:41.318Z,6.85
2022-12-11T14:58:21.455Z,7.32
2022-12-11T15:01:20.370Z,5.97
2022-12-11T15:03:50.765Z,6.80
2022-12-11T15:06:28.150Z,7.25
2022-12-11T15:08:55.718Z,6.68
2022-12-11T15:11:24.423Z,7.25
2022-12-11T15:13:53.356Z,8.68
2022-12-11T15:16:23.579Z,8.40
2022-12-11T15:18:53.424Z,8.13
2022-12-11T15:21:31.231Z,8.48
2022-12-11T15:24:00.577Z,6.88
2022-12-11T15:26:57.064Z,7.25
2022-12-11T15:29:40.141Z,6.88
2022-12-11T15:32:10.317Z,8.68
2022-12-11T15:35:23.546Z,6.55
2022-12-11T15:37:55.489Z,6.93
2022-12-11T15:40:23.410Z,5.47
2022-12-11T15:42:51.636Z,6.38
2022-12-11T15:45:37.277Z,7.15
2022-12-11T15:48:04.423Z,8.27
2022-12-11T15:50:32.704Z,9.68
2022-12-11T15:52:59.694Z,10.43
2022-12-11T15:55:34.352Z,6.43
2022-12-11T15:58:06.645Z,6.53
2022-12-11T16:00:33.988Z,7.05
2022-12-11T16:03:03.504Z,6.18
2022-12-11T16:05:30.477Z,6.03
2022-12-11T16:07:59.716Z,6.38
2022-12-11T16:10:27.285Z,5.40
2022-12-11T16:12:59.386Z,6.13
2022-12-11T16:15:27.362Z,6.43
2022-12-11T16:18:08.607Z,5.47
2022-12-11T16:20:36.762Z,7.22
2022-12-11T16:23:04.757Z,5.40
2022-12-11T16:25:32.853Z,6.45
2022-12-11T16:28:01.602Z,6.10
2022-12-11T16:30:30.035Z,5.82
2022-12-11T16:32:57.109Z,7.15
2022-12-11T16:35:24.027Z,9.15
2022-12-11T16:37:52.631Z,5.88
2022-12-11T16:40:20.628Z,6.95
2022-12-11T16:42:49.406Z,6.97
2022-12-11T16:45:22.098Z,7.20
2022-12-11T16:47:49.677Z,5.40
2022-12-11T16:50:17.859Z,5.97
2022-12-11T16:52:45.795Z,6.40
2022-12-11T16:55:14.679Z,7.70
2022-12-11T16:57:42.435Z,7.55
2022-12-11T17:00:12.594Z,6.97
2022-12-11T17:02:40.218Z,7.18
2022-12-11T17:05:07.697Z,6.60
2022-12-11T17:07:34.799Z,6.00
2022-12-11T17:10:03.263Z,5.85
2022-12-11T17:12:30.824Z,6.00
2022-12-11T17:14:57.858Z,5.50
2022-12-11T17:17:25.590Z,7.30
2022-12-11T17:19:52.767Z,6.80
2022-12-11T17:22:20.045Z,5.93
2022-12-11T17:24:47.064Z,6.63
2022-12-11T17:27:14.446Z,8.20
2022-12-11T17:29:41.440Z,7.72
2022-12-11T17:32:08.695Z,7.75
2022-12-11T17:34:38.630Z,7.18
2022-12-11T17:37:06.402Z,6.95
2022-12-11T17:39:33.725Z,7.22
2022-12-11T17:42:00.778Z,7.15
2022-12-11T17:44:30.693Z,5.63
2022-12-11T17:46:58.997Z,6.43
2022-12-11T17:49:26.587Z,5.78
2022-12-11T17:51:55.324Z,5.10
2022-12-11T17:54:24.165Z,6.25
2022-12-11T17:56:51.632Z,8.50
2022-12-11T17:59:18.710Z,6.03
2022-12-11T18:01:45.806Z,8.20
2022-12-11T18:04:13.163Z,5.90
2022-12-11T18:06:43.132Z,8.85
2022-12-11T18:09:10.360Z,5.82
2022-12-11T18:11:37.351Z,5.95
2022-12-11T18:14:04.687Z,5.70
2022-12-11T18:16:38.070Z,6.70
2022-12-11T18:19:06.191Z,6.70
2022-12-11T18:21:36.278Z,7.68
2022-12-11T18:24:03.326Z,5.80
2022-12-11T18:26:30.321Z,6.90
2022-12-11T18:28:57.328Z,5.90
2022-12-11T18:31:24.752Z,7.05
2022-12-11T18:33:51.873Z,5.70
2022-12-11T18:36:20.320Z,6.43
2022-12-11T18:38:48.086Z,5.82
2022-12-11T18:41:16.387Z,5.43
2022-12-11T18:43:43.604Z,6.45
2022-12-11T18:46:14.378Z,6.30
2022-12-11T18:48:45.118Z,5.28
2022-12-11T18:51:15.213Z,5.32
2022-12-11T18:53:42.281Z,6.22
2022-12-11T18:56:12.572Z,6.90
2022-12-11T18:58:42.169Z,5.32
2022-12-11T19:01:17.330Z,5.68
2022-12-11T19:03:44.643Z,6.00
2022-12-11T19:06:16.978Z,5.78
2022-12-11T19:08:44.525Z,8.23
2022-12-11T19:11:16.035Z,7.00
2022-12-11T19:13:43.997Z,6.63
2022-12-11T19:16:23.004Z,5.90
2022-12-11T19:18:50.204Z,7.07
2022-12-11T19:21:17.994Z,7.68
2022-12-11T19:23:45.872Z,6.18
2022-12-11T19:26:15.561Z,5.28
2022-12-11T19:28:43.069Z,5.53
2022-12-11T19:31:12.188Z,5.72
2022-12-11T19:33:41.054Z,6.75
2022-12-11T19:36:14.213Z,4.88
2022-12-11T19:38:42.994Z,5.15
2022-12-11T19:41:17.496Z,7.07
2022-12-11T19:43:45.497Z,7.35
2022-12-11T19:46:13.550Z,5.03
2022-12-11T19:48:42.170Z,5.55
2022-12-11T19:51:15.615Z,8.40
2022-12-11T19:53:44.611Z,6.65
2022-12-11T19:56:12.123Z,6.20
2022-12-11T19:58:39.304Z,5.95
2022-12-11T20:01:09.724Z,5.95
2022-12-11T20:03:38.198Z,6.13
2022-12-11T20:06:08.186Z,4.70
2022-12-11T20:08:44.717Z,5.68
2022-12-11T20:11:17.904Z,5.95
2022-12-11T20:13:49.393Z,5.38
2022-12-11T20:16:39.119Z,7.17
2022-12-11T20:19:08.710Z,6.53
2022-12-11T20:21:36.138Z,6.85
2022-12-11T20:24:03.849Z,5.00
2022-12-11T20:26:32.566Z,6.38
2022-12-11T20:28:59.778Z,5.85
2022-12-11T20:31:26.909Z,6.85
2022-12-11T20:33:56.089Z,6.70
2022-12-11T20:36:24.696Z,5.05
2022-12-11T20:38:52.924Z,5.40
2022-12-11T20:41:21.815Z,4.90
2022-12-11T20:43:49.596Z,8.00
2022-12-11T20:46:18.649Z,4.72
2022-12-11T20:48:46.808Z,5.40
2022-12-11T20:51:22.428Z,6.45
2022-12-11T20:53:58.517Z,6.45
2022-12-11T20:56:29.412Z,5.85
2022-12-11T20:58:57.489Z,6.45
2022-12-11T21:01:26.777Z,7.95
2022-12-11T21:03:54.527Z,6.20
2022-12-11T21:06:42.642Z,5.72
2022-12-11T21:09:13.893Z,7.25
2022-12-11T21:11:41.127Z,8.02
2022-12-11T21:14:08.050Z,6.75
2022-12-11T21:16:37.102Z,7.07
2022-12-11T21:19:05.108Z,5.15
2022-12-11T21:21:33.687Z,5.60
2022-12-11T21:24:00.629Z,5.60
2022-12-11T21:26:30.067Z,7.47
2022-12-11T21:35:16.668Z,8.25
2022-12-11T21:46:50.703Z,6.47
2022-12-11T21:49:17.767Z,6.93
2022-12-11T21:51:47.452Z,6.13
2022-12-11T21:54:17.437Z,7.93
2022-12-11T21:56:45.366Z,6.68
2022-12-11T21:59:13.072Z,7.07
2022-12-11T22:01:45.976Z,6.55
2022-12-11T22:04:15.731Z,6.82
2022-12-11T22:06:43.605Z,8.05
2022-12-11T22:09:12.627Z,6.93
2022-12-11T22:11:41.556Z,6.50
2022-12-11T22:14:14.638Z,7.88
2022-12-11T22:16:43.499Z,7.18
2022-12-11T22:19:10.799Z,7.53
2022-12-11T22:21:39.352Z,7.05
2022-12-11T22:24:06.673Z,6.80
2022-12-11T22:26:35.915Z,7.47
2022-12-11T22:29:03.002Z,7.32
2022-12-11T22:31:29.894Z,7.63
2022-12-11T22:33:56.883Z,6.85
2022-12-11T22:36:26.862Z,9.25
2022-12-11T22:38:54.236Z,7.20
2022-12-11T22:41:27.798Z,6.82
2022-12-11T22:43:55.276Z,6.05
2022-12-11T22:46:25.059Z,6.13
2022-12-11T22:48:52.898Z,6.75
2022-12-11T22:51:20.728Z,7.07
2022-12-11T22:53:48.187Z,6.70
2022-12-11T22:56:15.764Z,7.93
2022-12-11T22:58:44.326Z,7.80
2022-12-11T23:01:17.189Z,6.32
2022-12-11T23:03:44.482Z,6.78
2022-12-11T23:06:14.893Z,7.50
2022-12-11T23:08:43.319Z,7.50
2022-12-11T23:11:24.169Z,6.80
2022-12-11T23:13:51.412Z,6.43
2022-12-11T23:16:18.484Z,8.38
2022-12-11T23:18:45.930Z,5.40
2022-12-11T23:21:13.484Z,9.02
2022-12-11T23:23:41.050Z,7.18
2022-12-11T23:26:10.128Z,7.40
2022-12-11T23:28:37.844Z,8.18
2022-12-11T23:31:05.799Z,6.68
2022-12-11T23:33:33.104Z,5.85
2022-12-11T23:36:00.554Z,7.75
2022-12-11T23:38:27.492Z,6.18
2022-12-11T23:40:54.850Z,5.90
2022-12-11T23:43:22.125Z,8.85
2022-12-11T23:45:49.219Z,8.10
2022-12-11T23:48:16.627Z,6.45
2022-12-11T23:50:44.227Z,7.80
2022-12-11T23:53:11.638Z,9.27
2022-12-11T23:55:41.045Z,8.82
2022-12-11T23:58:08.323Z,7.07
